Humidity-temperature Sensor

Selected Measurement Type: Air Temperature

 
Air Temperature [°C]     6 entries per hour
Showing data from 4/10/2023 (00:00:00 Z) to 4/3/2023 (00:01:00 Z)
Previous Next [ Day | 3-Days | 7-Days ]
First Last
Prev [ Day | 3-Days | 7-Days ] Next
First Last

Start Time:     :
End Time:     :     
Time (in GMT) :00 :50 :40 :30 :20 :10
Previous Next [ Day | 3-Days | 7-Days ]
First Last
Prev [ Day | 3-Days | 7-Days ] Next
First Last


123 => good data
MM => data is determined as missing
-- => data not received/configured
Back to Top Back to Top
4/10/2023 00:00 to 23:10 27.86 27.82 27.90 27.82 27.87 27.88
4/9/2023 23:00 to 22:10 27.81 27.84 27.85 27.83 27.77 27.85
4/9/2023 22:00 to 21:10 27.83 27.91 27.87 27.78 27.84 27.79
4/9/2023 21:00 to 20:10 27.79 27.87 27.90 27.87 27.84 27.92
4/9/2023 20:00 to 19:10 27.91 27.98 27.92 27.75 27.75 27.63
4/9/2023 19:00 to 18:10 27.50 27.71 27.66 27.82 27.81 27.88
4/9/2023 18:00 to 17:10 27.65 27.57 27.37 27.63 27.56 27.58
4/9/2023 17:00 to 16:10 27.52 27.46 27.51 27.60 27.52 27.51
4/9/2023 16:00 to 15:10 27.54 27.52 27.56 27.49 27.53 27.44
4/9/2023 15:00 to 14:10 27.45 27.56 27.48 27.60 27.53 27.43
4/9/2023 14:00 to 13:10 27.50 27.56 27.53 27.57 27.52 27.26
4/9/2023 13:00 to 12:10 27.61 27.59 27.63 27.59 27.73 27.65
4/9/2023 12:00 to 11:10 27.68 27.69 27.76 27.65 27.70 27.70
4/9/2023 11:00 to 10:10 27.82 27.70 27.71 27.83 27.79 27.85
4/9/2023 10:00 to 9:10 27.83 27.78 27.75 27.85 27.81 27.83
4/9/2023 09:00 to 8:10 27.93 27.93 27.86 27.83 27.86 27.80
4/9/2023 08:00 to 7:10 27.81 27.93 27.84 27.78 27.77 27.76
4/9/2023 07:00 to 6:10 27.86 27.92 27.87 27.90 27.86 27.81
4/9/2023 06:00 to 5:10 27.95 27.86 27.87 27.90 27.87 27.86
4/9/2023 05:00 to 4:10 27.81 27.96 28.07 28.08 28.11 28.12
4/9/2023 04:00 to 3:10 28.11 28.04 28.03 27.90 27.91 27.93
4/9/2023 03:00 to 2:10 27.81 27.97 27.88 27.98 27.89 28.04
4/9/2023 02:00 to 1:10 28.02 27.97 27.99 27.93 27.88 28.02
4/9/2023 01:00 to 0:10 27.85 27.77 27.94 28.06 27.86 27.83
4/9/2023 00:00 to 23:10 27.86 27.82 28.00 28.01 27.96 27.95
4/8/2023 23:00 to 22:10 28.01 28.05 27.98 28.06 28.00 27.99
4/8/2023 22:00 to 21:10 27.97 28.05 28.01 27.91 27.98 27.95
4/8/2023 21:00 to 20:10 27.98 28.00 28.04 27.99 28.07 28.08
4/8/2023 20:00 to 19:10 28.03 27.99 27.96 27.99 28.08 28.09
4/8/2023 19:00 to 18:10 28.02 27.95 28.11 28.06 27.92 27.92
4/8/2023 18:00 to 17:10 27.96 27.88 27.74 27.67 27.76 27.48
4/8/2023 17:00 to 16:10 27.49 27.49 27.35 27.70 27.70 27.67
4/8/2023 16:00 to 15:10 27.61 27.71 27.64 27.60 27.65 27.69
4/8/2023 15:00 to 14:10 27.62 27.63 27.67 27.62 27.69 27.67
4/8/2023 14:00 to 13:10 27.67 27.73 27.67 27.63 27.60 27.69
4/8/2023 13:00 to 12:10 27.76 27.67 27.72 27.74 27.67 27.75
4/8/2023 12:00 to 11:10 27.85 27.83 27.85 27.87 27.80 27.85
4/8/2023 11:00 to 10:10 27.90 27.93 27.79 27.89 28.00 28.02
4/8/2023 10:00 to 9:10 27.99 27.98 27.91 28.02 28.08 27.96
4/8/2023 09:00 to 8:10 27.89 27.85 27.70 27.68 27.39 27.13
4/8/2023 08:00 to 7:10 27.96 27.82 27.72 27.65 27.66 27.57
4/8/2023 07:00 to 6:10 27.27 27.04 28.11 28.00 28.06 28.07
4/8/2023 06:00 to 5:10 28.12 28.05 28.10 28.13 28.15 28.20
4/8/2023 05:00 to 4:10 28.12 28.15 28.10 28.17 28.06 28.14
4/8/2023 04:00 to 3:10 28.11 28.19 28.12 28.04 28.03 28.07
4/8/2023 03:00 to 2:10 28.10 28.06 28.10 28.14 28.05 28.06
4/8/2023 02:00 to 1:10 28.29 28.32 28.27 28.38 28.27 28.25
4/8/2023 01:00 to 0:10 28.24 28.21 28.14 28.23 28.23 28.20
4/8/2023 00:00 to 23:10 28.18 28.21 28.21 28.12 28.21 28.18
4/7/2023 23:00 to 22:10 28.20 28.15 28.19 28.13 28.17 28.25
4/7/2023 22:00 to 21:10 28.26 28.27 28.25 28.24 28.18 28.14
4/7/2023 21:00 to 20:10 28.13 28.11 28.21 28.23 28.18 28.23
4/7/2023 20:00 to 19:10 28.23 28.24 28.32 28.37 28.10 28.00
4/7/2023 19:00 to 18:10 27.99 27.97 27.93 27.98 27.96 27.92
4/7/2023 18:00 to 17:10 27.84 27.85 27.80 27.86 27.77 27.79
4/7/2023 17:00 to 16:10 27.85 27.78 27.78 27.95 27.85 27.82
4/7/2023 16:00 to 15:10 27.87 27.92 27.88 27.89 27.92 27.89
4/7/2023 15:00 to 14:10 27.82 27.87 27.92 27.96 27.93 27.99
4/7/2023 14:00 to 13:10 27.91 27.83 27.83 27.78 27.71 27.56
4/7/2023 13:00 to 12:10 27.47 27.41 27.45 27.37 27.37 27.36
4/7/2023 12:00 to 11:10 27.36 27.36 27.34 27.43 27.45 27.51
4/7/2023 11:00 to 10:10 27.43 27.48 27.45 27.50 27.58 27.49
4/7/2023 10:00 to 9:10 27.64 27.49 27.58 27.51 27.53 27.53
4/7/2023 09:00 to 8:10 27.50 27.54 27.61 27.58 27.60 27.61
4/7/2023 08:00 to 7:10 27.80 27.70 27.68 27.70 27.72 27.73
4/7/2023 07:00 to 6:10 27.73 27.75 27.68 27.79 27.78 27.68
4/7/2023 06:00 to 5:10 27.81 27.78 27.76 27.59 27.60 27.63
4/7/2023 05:00 to 4:10 27.61 27.64 27.66 27.70 27.65 27.79
4/7/2023 04:00 to 3:10 27.80 27.73 27.51 27.69 27.66 27.58
4/7/2023 03:00 to 2:10 27.71 27.70 27.65 27.65 27.69 27.78
4/7/2023 02:00 to 1:10 27.59 27.59 27.62 27.86 27.73 27.90
4/7/2023 01:00 to 0:10 27.87 27.75 27.68 27.83 27.75 27.73
4/7/2023 00:00 to 23:10 27.72 27.72 27.93 27.84 27.79 27.87
4/6/2023 23:00 to 22:10 28.18 28.00 28.03 28.06 28.02 28.19
4/6/2023 22:00 to 21:10 28.17 28.05 28.09 28.04 28.06 28.08
4/6/2023 21:00 to 20:10 27.83 27.87 27.96 28.17 28.14 28.12
4/6/2023 20:00 to 19:10 28.21 27.88 28.13 27.96 28.21 28.11
4/6/2023 19:00 to 18:10 28.13 28.15 28.11 28.29 27.99 28.06
4/6/2023 18:00 to 17:10 27.91 27.93 27.96 27.92 27.53 27.41
4/6/2023 17:00 to 16:10 27.41 27.27 27.17 27.01 26.80 26.77
4/6/2023 16:00 to 15:10 27.02 26.87 27.07 26.43 26.06 26.51
4/6/2023 15:00 to 14:10 26.63 26.69 27.00 26.73 26.67 26.58
4/6/2023 14:00 to 13:10 26.51 26.36 26.52 26.66 26.62 26.29
4/6/2023 13:00 to 12:10 26.25 26.08 26.01 25.90 26.15 26.13
4/6/2023 12:00 to 11:10 25.88 26.89 26.88 27.05 26.88 26.53
4/6/2023 11:00 to 10:10 26.93 26.34 25.88 25.50 24.86 25.12
4/6/2023 10:00 to 9:10 25.27 24.99 25.24 24.86 24.77 27.14
4/6/2023 09:00 to 8:10 27.06 26.29 26.27 25.97 24.64 24.86
4/6/2023 08:00 to 7:10 25.17 24.99 24.59 24.84 25.65 25.93
4/6/2023 07:00 to 6:10 25.35 25.88 25.22 24.50 23.74 24.17
4/6/2023 06:00 to 5:10 24.15 24.24 24.21 25.31 25.86 27.96
4/6/2023 05:00 to 4:10 27.94 27.94 27.85 27.98 28.01 28.00
4/6/2023 04:00 to 3:10 28.00 27.90 27.95 28.14 28.04 27.96
4/6/2023 03:00 to 2:10 28.08 28.01 27.99 27.97 28.03 28.01
4/6/2023 02:00 to 1:10 28.08 27.97 27.92 27.97 28.00 27.95
4/6/2023 01:00 to 0:10 27.89 27.60 27.52 27.99 28.01 27.97
4/6/2023 00:00 to 23:10 28.01 27.90 28.05 28.02 28.12 27.89
4/5/2023 23:00 to 22:10 27.77 28.17 28.11 28.17 28.03 28.08
4/5/2023 22:00 to 21:10 27.97 28.19 28.12 28.12 28.02 28.09
4/5/2023 21:00 to 20:10 27.99 28.08 28.08 28.15 28.03 28.06
4/5/2023 20:00 to 19:10 28.05 28.11 27.85 27.95 27.75 27.88
4/5/2023 19:00 to 18:10 28.01 28.05 27.69 27.50 27.50 27.57
4/5/2023 18:00 to 17:10 27.58 27.54 27.57 27.45 27.41 27.41
4/5/2023 17:00 to 16:10 27.83 27.76 27.69 27.77 27.64 27.63
4/5/2023 16:00 to 15:10 27.75 27.63 27.54 27.62 27.56 27.67
4/5/2023 15:00 to 14:10 27.55 27.52 27.65 27.46 27.52 27.20
4/5/2023 14:00 to 13:10 27.16 27.18 26.89 26.31 27.04 27.11
4/5/2023 13:00 to 12:10 26.99 26.50 26.12 27.07 26.86 26.82
4/5/2023 12:00 to 11:10 27.37 27.34 27.46 27.40 27.33 27.45
4/5/2023 11:00 to 10:10 27.56 27.63 27.62 27.60 27.57 27.64
4/5/2023 10:00 to 9:10 27.64 27.48 27.44 27.48 27.51 27.57
4/5/2023 09:00 to 8:10 27.55 27.58 27.56 27.67 27.57 27.62
4/5/2023 08:00 to 7:10 27.39 27.69 27.44 27.51 27.48 27.56
4/5/2023 07:00 to 6:10 27.49 27.47 27.58 27.56 27.51 27.58
4/5/2023 06:00 to 5:10 27.61 27.57 27.39 27.35 27.46 27.24
4/5/2023 05:00 to 4:10 27.40 27.30 27.35 27.33 27.57 27.51
4/5/2023 04:00 to 3:10 27.73 27.69 28.01 27.98 27.98 27.96
4/5/2023 03:00 to 2:10 28.07 27.88 27.95 27.93 27.83 27.87
4/5/2023 02:00 to 1:10 27.81 27.85 27.89 27.86 27.96 27.98
4/5/2023 01:00 to 0:10 27.98 28.12 27.98 28.11 28.02 27.96
4/5/2023 00:00 to 23:10 28.06 28.05 27.97 27.96 28.00 27.97
4/4/2023 23:00 to 22:10 28.01 27.92 27.98 28.04 27.97 27.93
4/4/2023 22:00 to 21:10 27.98 28.11 27.94 28.07 27.99 27.93
4/4/2023 21:00 to 20:10 28.01 27.98 27.99 28.06 28.03 28.16
4/4/2023 20:00 to 19:10 28.16 28.07 28.09 28.20 27.90 27.91
4/4/2023 19:00 to 18:10 28.01 28.01 28.17 28.08 28.00 27.79
4/4/2023 18:00 to 17:10 27.78 27.81 27.59 27.57 27.66 27.75
4/4/2023 17:00 to 16:10 27.63 27.65 27.60 27.47 27.63 27.62
4/4/2023 16:00 to 15:10 27.63 27.58 27.69 27.54 27.54 27.64
4/4/2023 15:00 to 14:10 27.57 27.52 27.53 27.70 27.61 27.58
4/4/2023 14:00 to 13:10 27.62 27.68 27.59 27.71 27.70 27.67
4/4/2023 13:00 to 12:10 27.62 27.70 27.70 27.69 27.58 27.77
4/4/2023 12:00 to 11:10 27.69 27.80 27.72 27.69 27.87 27.87
4/4/2023 11:00 to 10:10 27.81 27.84 27.92 27.79 27.75 27.83
4/4/2023 10:00 to 9:10 27.80 27.97 27.83 27.85 27.88 27.87
4/4/2023 09:00 to 8:10 27.91 27.92 27.85 27.93 27.92 27.87
4/4/2023 08:00 to 7:10 27.95 28.06 27.99 27.91 27.92 27.94
4/4/2023 07:00 to 6:10 27.93 27.99 27.93 27.90 27.89 27.94
4/4/2023 06:00 to 5:10 27.97 28.04 27.96 27.93 28.01 28.09
4/4/2023 05:00 to 4:10 28.04 28.11 28.07 28.12 28.00 27.99
4/4/2023 04:00 to 3:10 28.10 27.93 28.06 27.90 27.94 27.85
4/4/2023 03:00 to 2:10 27.83 27.96 27.92 27.93 27.94 27.83
4/4/2023 02:00 to 1:10 27.78 27.91 27.71 27.78 27.80 27.81
4/4/2023 01:00 to 0:10 27.79 27.72 27.78 27.76 27.86 27.81
4/4/2023 00:00 to 23:10 27.81 27.92 27.91 27.84 27.70 27.90
4/3/2023 23:00 to 22:10 27.69 27.84 27.69 27.85 27.84 27.84
4/3/2023 22:00 to 21:10 27.90 27.99 27.86 27.65 27.91 27.79
4/3/2023 21:00 to 20:10 27.63 27.66 27.79 27.89 27.81 27.74
4/3/2023 20:00 to 19:10 27.87 27.95 28.02 27.90 28.20 27.98
4/3/2023 19:00 to 18:10 27.97 27.97 28.00 28.12 28.09 27.95
4/3/2023 18:00 to 17:10 27.89 27.64 27.75 27.61 27.65 27.76
4/3/2023 17:00 to 16:10 27.60 27.59 27.62 27.70 27.63 27.60
4/3/2023 16:00 to 15:10 27.52 27.63 27.55 27.62 27.54 27.64
4/3/2023 15:00 to 14:10 27.69 27.55 27.70 27.55 27.51 27.61
4/3/2023 14:00 to 13:10 27.68 27.60 27.64 27.73 27.60 27.68
4/3/2023 13:00 to 12:10 27.68 27.58 27.57 27.79 27.67 27.68
4/3/2023 12:00 to 11:10 27.71 27.71 27.75 27.73 27.71 27.81
4/3/2023 11:00 to 10:10 27.93 27.89 27.86 27.79 27.90 27.78
4/3/2023 10:00 to 9:10 27.84 27.90 27.78 27.87 27.88 27.91
4/3/2023 09:00 to 8:10 27.95 27.90 27.92 27.93 27.91 27.98
4/3/2023 08:00 to 7:10 28.01 28.04 27.98 27.91 27.84 27.94
4/3/2023 07:00 to 6:10 27.98 27.71 27.91 27.83 27.88 27.90
4/3/2023 06:00 to 5:10 27.93 27.94 27.83 27.86 27.90 27.89
4/3/2023 05:00 to 4:10 27.87 27.92 28.01 27.96 28.16 27.90
4/3/2023 04:00 to 3:10 28.11 28.05 27.86 27.99 28.01 28.00
4/3/2023 03:00 to 2:10 27.92 28.06 28.03 28.04 27.86 27.89
4/3/2023 02:00 to 1:10 28.10 28.03 27.97 27.97 27.99 27.87
4/3/2023 01:00 to 0:10 27.87 27.89 28.02 27.87 27.89 27.87